sensor_id;sensor_type;location;lat;lon;timestamp;temperature;humidity
23122;DHT22;11730;51.248;22.534;2024-02-28T00:01:18;9.60;1.00
23122;DHT22;11730;51.248;22.534;2024-02-28T00:03:45;9.70;1.00
23122;DHT22;11730;51.248;22.534;2024-02-28T00:06:16;9.70;1.00
23122;DHT22;11730;51.248;22.534;2024-02-28T00:11:11;9.50;1.00
23122;DHT22;11730;51.248;22.534;2024-02-28T00:13:39;9.70;1.00
23122;DHT22;11730;51.248;22.534;2024-02-28T00:18:33;9.60;1.00
23122;DHT22;11730;51.248;22.534;2024-02-28T00:23:27;9.60;1.00
23122;DHT22;11730;51.248;22.534;2024-02-28T00:35:47;9.50;1.00
23122;DHT22;11730;51.248;22.534;2024-02-28T00:40:41;9.60;1.00
23122;DHT22;11730;51.248;22.534;2024-02-28T00:43:08;9.60;1.00
23122;DHT22;11730;51.248;22.534;2024-02-28T00:50:30;9.30;1.00
23122;DHT22;11730;51.248;22.534;2024-02-28T00:52:57;9.20;1.00
23122;DHT22;11730;51.248;22.534;2024-02-28T00:57:51;9.80;1.00
23122;DHT22;11730;51.248;22.534;2024-02-28T01:00:18;9.10;1.00
23122;DHT22;11730;51.248;22.534;2024-02-28T01:02:46;9.30;1.00
23122;DHT22;11730;51.248;22.534;2024-02-28T01:07:40;9.20;1.00
23122;DHT22;11730;51.248;22.534;2024-02-28T01:12:35;9.00;1.00
23122;DHT22;11730;51.248;22.534;2024-02-28T01:17:30;8.90;1.00
23122;DHT22;11730;51.248;22.534;2024-02-28T01:24:51;9.00;1.00
23122;DHT22;11730;51.248;22.534;2024-02-28T01:34:41;8.90;1.00
23122;DHT22;11730;51.248;22.534;2024-02-28T01:37:08;9.20;1.00
23122;DHT22;11730;51.248;22.534;2024-02-28T01:46:57;9.20;1.00
23122;DHT22;11730;51.248;22.534;2024-02-28T01:49:25;9.10;1.00
23122;DHT22;11730;51.248;22.534;2024-02-28T01:51:53;9.10;1.00
23122;DHT22;11730;51.248;22.534;2024-02-28T01:59:18;8.70;1.00
23122;DHT22;11730;51.248;22.534;2024-02-28T02:01:45;8.90;1.00
23122;DHT22;11730;51.248;22.534;2024-02-28T02:04:13;9.00;1.00
23122;DHT22;11730;51.248;22.534;2024-02-28T02:06:42;9.20;1.00
23122;DHT22;11730;51.248;22.534;2024-02-28T02:11:38;9.00;1.00
23122;DHT22;11730;51.248;22.534;2024-02-28T02:16:33;9.10;1.00
23122;DHT22;11730;51.248;22.534;2024-02-28T02:19:00;8.50;1.00
23122;DHT22;11730;51.248;22.534;2024-02-28T02:21:30;9.00;1.00
23122;DHT22;11730;51.248;22.534;2024-02-28T02:33:47;8.90;1.00
23122;DHT22;11730;51.248;22.534;2024-02-28T02:36:15;9.00;1.00
23122;DHT22;11730;51.248;22.534;2024-02-28T02:38:41;8.90;1.00
23122;DHT22;11730;51.248;22.534;2024-02-28T02:43:36;8.90;1.00
23122;DHT22;11730;51.248;22.534;2024-02-28T02:46:03;9.00;1.00
23122;DHT22;11730;51.248;22.534;2024-02-28T02:58:20;9.00;1.00
23122;DHT22;11730;51.248;22.534;2024-02-28T03:15:33;9.00;1.00
23122;DHT22;11730;51.248;22.534;2024-02-28T03:18:01;9.00;1.00
23122;DHT22;11730;51.248;22.534;2024-02-28T03:27:50;8.70;1.00
23122;DHT22;11730;51.248;22.534;2024-02-28T03:30:17;9.20;1.00
23122;DHT22;11730;51.248;22.534;2024-02-28T03:37:39;9.00;1.00
23122;DHT22;11730;51.248;22.534;2024-02-28T03:40:07;9.00;1.00
23122;DHT22;11730;51.248;22.534;2024-02-28T03:42:34;9.10;1.00
23122;DHT22;11730;51.248;22.534;2024-02-28T03:49:56;8.90;1.00
23122;DHT22;11730;51.248;22.534;2024-02-28T03:54:51;8.90;1.00
23122;DHT22;11730;51.248;22.534;2024-02-28T03:59:46;9.10;1.00
23122;DHT22;11730;51.248;22.534;2024-02-28T04:04:40;8.90;1.00
23122;DHT22;11730;51.248;22.534;2024-02-28T04:07:07;8.90;1.00
23122;DHT22;11730;51.248;22.534;2024-02-28T04:12:01;8.80;1.00
23122;DHT22;11730;51.248;22.534;2024-02-28T04:19:24;8.70;1.00
23122;DHT22;11730;51.248;22.534;2024-02-28T04:21:51;8.90;1.00
23122;DHT22;11730;51.248;22.534;2024-02-28T04:24:18;8.90;1.00
23122;DHT22;11730;51.248;22.534;2024-02-28T04:29:12;9.00;1.00
23122;DHT22;11730;51.248;22.534;2024-02-28T04:36:36;8.40;1.00
23122;DHT22;11730;51.248;22.534;2024-02-28T04:44:00;8.90;1.00
23122;DHT22;11730;51.248;22.534;2024-02-28T04:51:22;8.80;1.00
23122;DHT22;11730;51.248;22.534;2024-02-28T04:53:49;8.70;1.00
23122;DHT22;11730;51.248;22.534;2024-02-28T05:08:38;8.30;1.00
23122;DHT22;11730;51.248;22.534;2024-02-28T05:16:00;8.50;1.00
23122;DHT22;11730;51.248;22.534;2024-02-28T05:18:27;8.80;1.00
23122;DHT22;11730;51.248;22.534;2024-02-28T05:20:54;9.10;1.00
23122;DHT22;11730;51.248;22.534;2024-02-28T05:38:12;9.00;1.00
23122;DHT22;11730;51.248;22.534;2024-02-28T05:40:41;8.90;1.00
23122;DHT22;11730;51.248;22.534;2024-02-28T05:48:03;9.20;1.00
23122;DHT22;11730;51.248;22.534;2024-02-28T05:52:59;9.10;1.00
23122;DHT22;11730;51.248;22.534;2024-02-28T05:55:26;8.80;1.00
23122;DHT22;11730;51.248;22.534;2024-02-28T06:00:22;9.10;1.00
23122;DHT22;11730;51.248;22.534;2024-02-28T06:05:16;9.30;1.00
23122;DHT22;11730;51.248;22.534;2024-02-28T06:07:43;9.10;1.00
23122;DHT22;11730;51.248;22.534;2024-02-28T06:15:05;9.80;1.00
23122;DHT22;11730;51.248;22.534;2024-02-28T06:17:32;8.70;1.00
23122;DHT22;11730;51.248;22.534;2024-02-28T06:19:59;8.90;1.00
23122;DHT22;11730;51.248;22.534;2024-02-28T06:27:21;9.00;1.00
23122;DHT22;11730;51.248;22.534;2024-02-28T06:29:48;9.00;1.00
23122;DHT22;11730;51.248;22.534;2024-02-28T06:34:43;9.60;1.00
23122;DHT22;11730;51.248;22.534;2024-02-28T06:37:10;9.80;1.00
23122;DHT22;11730;51.248;22.534;2024-02-28T06:42:05;9.60;1.00
23122;DHT22;11730;51.248;22.534;2024-02-28T06:46:59;10.20;1.00
23122;DHT22;11730;51.248;22.534;2024-02-28T06:56:48;10.00;1.00
23122;DHT22;11730;51.248;22.534;2024-02-28T07:09:07;10.00;1.00
23122;DHT22;11730;51.248;22.534;2024-02-28T07:11:35;9.90;1.00
23122;DHT22;11730;51.248;22.534;2024-02-28T07:16:30;10.00;1.00
23122;DHT22;11730;51.248;22.534;2024-02-28T07:28:53;10.40;1.00
23122;DHT22;11730;51.248;22.534;2024-02-28T07:31:20;10.60;1.00
23122;DHT22;11730;51.248;22.534;2024-02-28T07:43:37;10.50;1.00
23122;DHT22;11730;51.248;22.534;2024-02-28T07:46:08;10.70;1.00
23122;DHT22;11730;51.248;22.534;2024-02-28T07:48:36;11.00;1.00
23122;DHT22;11730;51.248;22.534;2024-02-28T07:51:07;10.80;1.00
23122;DHT22;11730;51.248;22.534;2024-02-28T07:53:35;11.20;1.00
23122;DHT22;11730;51.248;22.534;2024-02-28T08:00:57;10.70;1.00
23122;DHT22;11730;51.248;22.534;2024-02-28T08:05:51;10.90;1.00
23122;DHT22;11730;51.248;22.534;2024-02-28T08:10:45;11.30;1.00
23122;DHT22;11730;51.248;22.534;2024-02-28T08:13:14;11.50;1.00
23122;DHT22;11730;51.248;22.534;2024-02-28T08:18:08;12.30;1.00
23122;DHT22;11730;51.248;22.534;2024-02-28T08:20:38;11.50;1.00
23122;DHT22;11730;51.248;22.534;2024-02-28T08:37:50;13.50;99.90
23122;DHT22;11730;51.248;22.534;2024-02-28T08:42:45;14.20;99.90
23122;DHT22;11730;51.248;22.534;2024-02-28T08:47:41;14.10;99.90
23122;DHT22;11730;51.248;22.534;2024-02-28T08:52:36;14.80;99.90
23122;DHT22;11730;51.248;22.534;2024-02-28T08:55:03;15.90;99.90
23122;DHT22;11730;51.248;22.534;2024-02-28T09:02:26;16.40;99.90
23122;DHT22;11730;51.248;22.534;2024-02-28T09:09:51;18.70;99.90
23122;DHT22;11730;51.248;22.534;2024-02-28T09:14:45;17.30;99.90
23122;DHT22;11730;51.248;22.534;2024-02-28T09:17:12;17.50;99.90
23122;DHT22;11730;51.248;22.534;2024-02-28T09:24:34;17.70;99.90
23122;DHT22;11730;51.248;22.534;2024-02-28T09:27:04;17.40;99.90
23122;DHT22;11730;51.248;22.534;2024-02-28T09:29:31;17.70;99.90
23122;DHT22;11730;51.248;22.534;2024-02-28T09:34:25;18.10;99.90
23122;DHT22;11730;51.248;22.534;2024-02-28T09:36:52;17.30;99.90
23122;DHT22;11730;51.248;22.534;2024-02-28T09:44:16;18.30;99.90
23122;DHT22;11730;51.248;22.534;2024-02-28T09:49:13;18.80;99.90
23122;DHT22;11730;51.248;22.534;2024-02-28T09:51:41;19.10;99.90
23122;DHT22;11730;51.248;22.534;2024-02-28T09:54:10;19.20;99.90
23122;DHT22;11730;51.248;22.534;2024-02-28T09:56:37;19.30;99.90
23122;DHT22;11730;51.248;22.534;2024-02-28T10:01:37;17.80;99.90
23122;DHT22;11730;51.248;22.534;2024-02-28T10:04:09;17.20;99.90
23122;DHT22;11730;51.248;22.534;2024-02-28T10:11:32;16.80;99.90
23122;DHT22;11730;51.248;22.534;2024-02-28T10:23:53;16.00;99.90
23122;DHT22;11730;51.248;22.534;2024-02-28T10:36:10;16.60;99.90
23122;DHT22;11730;51.248;22.534;2024-02-28T10:41:06;15.90;99.90
23122;DHT22;11730;51.248;22.534;2024-02-28T10:43:38;16.30;99.90
23122;DHT22;11730;51.248;22.534;2024-02-28T10:51:24;16.40;99.90
23122;DHT22;11730;51.248;22.534;2024-02-28T10:54:08;17.00;99.90
23122;DHT22;11730;51.248;22.534;2024-02-28T10:56:40;16.70;99.90
23122;DHT22;11730;51.248;22.534;2024-02-28T10:59:10;16.20;99.90
23122;DHT22;11730;51.248;22.534;2024-02-28T11:01:47;16.20;99.90
23122;DHT22;11730;51.248;22.534;2024-02-28T11:04:16;16.20;99.90
23122;DHT22;11730;51.248;22.534;2024-02-28T11:06:56;16.00;99.90
23122;DHT22;11730;51.248;22.534;2024-02-28T11:09:25;16.10;99.90
23122;DHT22;11730;51.248;22.534;2024-02-28T11:17:00;16.30;99.90
23122;DHT22;11730;51.248;22.534;2024-02-28T11:19:32;16.70;99.90
23122;DHT22;11730;51.248;22.534;2024-02-28T11:22:00;16.40;99.90
23122;DHT22;11730;51.248;22.534;2024-02-28T11:24:33;16.30;99.90
23122;DHT22;11730;51.248;22.534;2024-02-28T11:27:00;16.10;99.90
23122;DHT22;11730;51.248;22.534;2024-02-28T11:29:30;16.00;99.90
23122;DHT22;11730;51.248;22.534;2024-02-28T11:34:25;16.20;99.90
23122;DHT22;11730;51.248;22.534;2024-02-28T11:41:52;16.70;99.90
23122;DHT22;11730;51.248;22.534;2024-02-28T11:44:19;16.60;99.90
23122;DHT22;11730;51.248;22.534;2024-02-28T11:46:48;16.80;99.90
23122;DHT22;11730;51.248;22.534;2024-02-28T11:49:15;16.50;99.90
23122;DHT22;11730;51.248;22.534;2024-02-28T11:51:44;16.20;99.90
23122;DHT22;11730;51.248;22.534;2024-02-28T11:56:39;15.50;99.90
23122;DHT22;11730;51.248;22.534;2024-02-28T11:59:08;15.60;99.90
23122;DHT22;11730;51.248;22.534;2024-02-28T12:01:42;15.90;99.90
23122;DHT22;11730;51.248;22.534;2024-02-28T12:06:39;15.80;99.90
23122;DHT22;11730;51.248;22.534;2024-02-28T12:09:09;15.90;99.90
23122;DHT22;11730;51.248;22.534;2024-02-28T12:11:38;15.90;99.90
23122;DHT22;11730;51.248;22.534;2024-02-28T12:14:07;15.60;99.90
23122;DHT22;11730;51.248;22.534;2024-02-28T12:16:39;15.30;99.90
23122;DHT22;11730;51.248;22.534;2024-02-28T12:19:13;15.50;99.90
23122;DHT22;11730;51.248;22.534;2024-02-28T12:21:42;15.60;99.90
23122;DHT22;11730;51.248;22.534;2024-02-28T12:24:10;15.10;99.90
23122;DHT22;11730;51.248;22.534;2024-02-28T12:26:38;15.00;99.90
23122;DHT22;11730;51.248;22.534;2024-02-28T12:34:00;14.20;99.90
23122;DHT22;11730;51.248;22.534;2024-02-28T12:36:27;14.50;99.90
23122;DHT22;11730;51.248;22.534;2024-02-28T12:41:22;14.20;99.90
23122;DHT22;11730;51.248;22.534;2024-02-28T12:51:35;14.70;99.90
23122;DHT22;11730;51.248;22.534;2024-02-28T12:54:03;15.00;99.90
23122;DHT22;11730;51.248;22.534;2024-02-28T12:56:30;14.50;99.90
23122;DHT22;11730;51.248;22.534;2024-02-28T13:11:23;14.60;99.90
23122;DHT22;11730;51.248;22.534;2024-02-28T13:13:52;14.40;99.90
23122;DHT22;11730;51.248;22.534;2024-02-28T13:16:19;14.50;99.90
23122;DHT22;11730;51.248;22.534;2024-02-28T13:23:41;14.00;99.90
23122;DHT22;11730;51.248;22.534;2024-02-28T13:31:03;14.40;99.90
23122;DHT22;11730;51.248;22.534;2024-02-28T13:40:57;14.30;99.90
23122;DHT22;11730;51.248;22.534;2024-02-28T13:48:24;13.90;99.90
23122;DHT22;11730;51.248;22.534;2024-02-28T13:50:52;13.60;99.90
23122;DHT22;11730;51.248;22.534;2024-02-28T13:55:46;13.60;99.90
23122;DHT22;11730;51.248;22.534;2024-02-28T13:58:14;13.70;99.90
23122;DHT22;11730;51.248;22.534;2024-02-28T14:00:45;13.50;99.90
23122;DHT22;11730;51.248;22.534;2024-02-28T14:03:14;13.30;99.90
23122;DHT22;11730;51.248;22.534;2024-02-28T14:05:41;13.50;99.90
23122;DHT22;11730;51.248;22.534;2024-02-28T14:08:08;13.40;99.90
23122;DHT22;11730;51.248;22.534;2024-02-28T14:13:04;13.70;99.90
23122;DHT22;11730;51.248;22.534;2024-02-28T14:17:58;13.60;99.90
23122;DHT22;11730;51.248;22.534;2024-02-28T14:22:54;13.60;99.90
23122;DHT22;11730;51.248;22.534;2024-02-28T14:30:17;13.50;99.90
23122;DHT22;11730;51.248;22.534;2024-02-28T14:35:12;13.40;99.90
23122;DHT22;11730;51.248;22.534;2024-02-28T14:37:39;13.40;99.90
23122;DHT22;11730;51.248;22.534;2024-02-28T14:40:08;13.40;99.90
23122;DHT22;11730;51.248;22.534;2024-02-28T14:42:42;13.30;99.90
23122;DHT22;11730;51.248;22.534;2024-02-28T14:45:11;13.30;99.90
23122;DHT22;11730;51.248;22.534;2024-02-28T14:47:39;13.30;99.90
23122;DHT22;11730;51.248;22.534;2024-02-28T14:50:08;13.10;99.90
23122;DHT22;11730;51.248;22.534;2024-02-28T14:52:37;13.20;99.90
23122;DHT22;11730;51.248;22.534;2024-02-28T14:55:06;13.00;99.90
23122;DHT22;11730;51.248;22.534;2024-02-28T15:02:49;13.00;99.90
23122;DHT22;11730;51.248;22.534;2024-02-28T15:10:15;12.90;99.90
23122;DHT22;11730;51.248;22.534;2024-02-28T15:12:43;13.00;99.90
23122;DHT22;11730;51.248;22.534;2024-02-28T15:25:02;12.70;99.90
23122;DHT22;11730;51.248;22.534;2024-02-28T15:37:19;12.50;99.90
23122;DHT22;11730;51.248;22.534;2024-02-28T15:39:46;12.40;99.90
23122;DHT22;11730;51.248;22.534;2024-02-28T15:42:15;12.60;99.90
23122;DHT22;11730;51.248;22.534;2024-02-28T15:49:37;12.60;99.90
23122;DHT22;11730;51.248;22.534;2024-02-28T15:52:10;12.60;99.90
23122;DHT22;11730;51.248;22.534;2024-02-28T15:54:38;13.30;99.90
23122;DHT22;11730;51.248;22.534;2024-02-28T15:59:36;12.50;99.90
23122;DHT22;11730;51.248;22.534;2024-02-28T16:02:06;12.40;99.90
23122;DHT22;11730;51.248;22.534;2024-02-28T16:04:35;12.30;99.90
23122;DHT22;11730;51.248;22.534;2024-02-28T16:16:52;12.40;99.90
23122;DHT22;11730;51.248;22.534;2024-02-28T16:19:19;12.50;99.90
23122;DHT22;11730;51.248;22.534;2024-02-28T16:26:49;12.30;99.90
23122;DHT22;11730;51.248;22.534;2024-02-28T16:39:13;12.30;99.90
23122;DHT22;11730;51.248;22.534;2024-02-28T16:51:30;12.10;99.90
23122;DHT22;11730;51.248;22.534;2024-02-28T17:06:19;12.10;1.00
23122;DHT22;11730;51.248;22.534;2024-02-28T17:11:14;11.70;1.00
23122;DHT22;11730;51.248;22.534;2024-02-28T17:21:03;11.40;1.00
23122;DHT22;11730;51.248;22.534;2024-02-28T17:28:26;11.50;1.00
23122;DHT22;11730;51.248;22.534;2024-02-28T17:30:53;11.20;1.00
23122;DHT22;11730;51.248;22.534;2024-02-28T17:38:18;11.60;1.00
23122;DHT22;11730;51.248;22.534;2024-02-28T17:43:13;11.30;1.00
23122;DHT22;11730;51.248;22.534;2024-02-28T17:48:10;11.00;1.00
23122;DHT22;11730;51.248;22.534;2024-02-28T17:53:06;11.30;1.00
23122;DHT22;11730;51.248;22.534;2024-02-28T18:00:28;11.50;1.00
23122;DHT22;11730;51.248;22.534;2024-02-28T18:02:58;11.30;1.00
23122;DHT22;11730;51.248;22.534;2024-02-28T18:05:25;12.20;1.00
23122;DHT22;11730;51.248;22.534;2024-02-28T18:12:50;11.40;1.00
23122;DHT22;11730;51.248;22.534;2024-02-28T18:22:40;10.90;1.00
23122;DHT22;11730;51.248;22.534;2024-02-28T18:27:35;11.20;1.00
23122;DHT22;11730;51.248;22.534;2024-02-28T18:37:26;11.10;1.00
23122;DHT22;11730;51.248;22.534;2024-02-28T18:44:56;12.00;1.00
23122;DHT22;11730;51.248;22.534;2024-02-28T18:49:53;11.00;1.00
23122;DHT22;11730;51.248;22.534;2024-02-28T18:52:20;11.20;1.00
23122;DHT22;11730;51.248;22.534;2024-02-28T18:54:48;11.10;1.00
23122;DHT22;11730;51.248;22.534;2024-02-28T19:02:10;11.30;1.00
23122;DHT22;11730;51.248;22.534;2024-02-28T19:04:37;11.30;1.00
23122;DHT22;11730;51.248;22.534;2024-02-28T19:07:04;11.20;1.00
23122;DHT22;11730;51.248;22.534;2024-02-28T19:11:59;10.80;1.00
23122;DHT22;11730;51.248;22.534;2024-02-28T19:14:27;10.70;1.00
23122;DHT22;11730;51.248;22.534;2024-02-28T19:19:21;11.10;1.00
23122;DHT22;11730;51.248;22.534;2024-02-28T19:24:17;10.30;1.00
23122;DHT22;11730;51.248;22.534;2024-02-28T19:29:11;10.20;1.00
23122;DHT22;11730;51.248;22.534;2024-02-28T19:31:39;10.50;1.00
23122;DHT22;11730;51.248;22.534;2024-02-28T19:39:01;10.40;1.00
23122;DHT22;11730;51.248;22.534;2024-02-28T19:48:53;10.40;1.00
23122;DHT22;11730;51.248;22.534;2024-02-28T20:01:14;10.50;1.00
23122;DHT22;11730;51.248;22.534;2024-02-28T20:03:41;10.40;1.00
23122;DHT22;11730;51.248;22.534;2024-02-28T20:11:06;12.40;1.00
23122;DHT22;11730;51.248;22.534;2024-02-28T20:16:02;10.20;1.00
23122;DHT22;11730;51.248;22.534;2024-02-28T20:20:56;10.20;1.00
23122;DHT22;11730;51.248;22.534;2024-02-28T20:25:54;10.30;1.00
23122;DHT22;11730;51.248;22.534;2024-02-28T20:35:47;10.80;1.00
23122;DHT22;11730;51.248;22.534;2024-02-28T20:40:43;10.50;1.00
23122;DHT22;11730;51.248;22.534;2024-02-28T20:48:06;10.40;6.20
23122;DHT22;11730;51.248;22.534;2024-02-28T20:50:34;10.50;9.70
23122;DHT22;11730;51.248;22.534;2024-02-28T20:53:01;10.60;11.00
23122;DHT22;11730;51.248;22.534;2024-02-28T20:55:32;10.30;9.00
23122;DHT22;11730;51.248;22.534;2024-02-28T21:05:21;10.60;10.60
23122;DHT22;11730;51.248;22.534;2024-02-28T21:07:48;10.30;6.00
23122;DHT22;11730;51.248;22.534;2024-02-28T21:30:03;10.10;15.80
23122;DHT22;11730;51.248;22.534;2024-02-28T21:34:59;10.10;18.50
23122;DHT22;11730;51.248;22.534;2024-02-28T21:37:26;10.30;18.00
23122;DHT22;11730;51.248;22.534;2024-02-28T21:42:21;9.90;19.10
23122;DHT22;11730;51.248;22.534;2024-02-28T21:52:10;9.70;13.30
23122;DHT22;11730;51.248;22.534;2024-02-28T21:54:41;9.90;14.20
23122;DHT22;11730;51.248;22.534;2024-02-28T21:57:10;9.90;9.90
23122;DHT22;11730;51.248;22.534;2024-02-28T21:59:37;9.50;9.40
23122;DHT22;11730;51.248;22.534;2024-02-28T22:04:32;10.00;10.30
23122;DHT22;11730;51.248;22.534;2024-02-28T22:14:21;9.70;11.40
23122;DHT22;11730;51.248;22.534;2024-02-28T22:16:48;9.70;13.00
23122;DHT22;11730;51.248;22.534;2024-02-28T22:26:37;9.30;22.00
23122;DHT22;11730;51.248;22.534;2024-02-28T22:33:59;9.30;28.00
23122;DHT22;11730;51.248;22.534;2024-02-28T22:36:26;9.30;25.60
23122;DHT22;11730;51.248;22.534;2024-02-28T22:41:24;9.40;25.10
23122;DHT22;11730;51.248;22.534;2024-02-28T22:48:47;9.00;25.20
23122;DHT22;11730;51.248;22.534;2024-02-28T23:01:03;8.90;28.00
23122;DHT22;11730;51.248;22.534;2024-02-28T23:08:27;9.30;27.50
23122;DHT22;11730;51.248;22.534;2024-02-28T23:13:21;8.80;26.80
23122;DHT22;11730;51.248;22.534;2024-02-28T23:18:17;8.70;30.30
23122;DHT22;11730;51.248;22.534;2024-02-28T23:23:12;9.10;33.10
23122;DHT22;11730;51.248;22.534;2024-02-28T23:28:07;9.00;27.30
23122;DHT22;11730;51.248;22.534;2024-02-28T23:30:35;8.80;26.30
23122;DHT22;11730;51.248;22.534;2024-02-28T23:33:02;8.80;27.70
23122;DHT22;11730;51.248;22.534;2024-02-28T23:35:33;9.10;23.90
23122;DHT22;11730;51.248;22.534;2024-02-28T23:38:04;9.10;23.00
23122;DHT22;11730;51.248;22.534;2024-02-28T23:40:32;9.10;21.60
23122;DHT22;11730;51.248;22.534;2024-02-28T23:42:59;8.90;20.50
23122;DHT22;11730;51.248;22.534;2024-02-28T23:45:27;9.30;21.20
23122;DHT22;11730;51.248;22.534;2024-02-28T23:47:55;8.80;18.60
23122;DHT22;11730;51.248;22.534;2024-02-28T23:52:49;9.30;14.40
23122;DHT22;11730;51.248;22.534;2024-02-28T23:57:45;9.00;11.30
